sensor_id;sensor_type;location;lat;lon;timestamp;P1;durP1;ratioP1;P2;durP2;ratioP2
71558;SDS011;59382;43.852;25.952;2023-03-11T00:00:30;10.00;;;4.55;;
71558;SDS011;59382;43.852;25.952;2023-03-11T00:02:59;6.38;;;4.20;;
71558;SDS011;59382;43.852;25.952;2023-03-11T00:05:27;10.63;;;4.53;;
71558;SDS011;59382;43.852;25.952;2023-03-11T00:07:55;11.07;;;5.10;;
71558;SDS011;59382;43.852;25.952;2023-03-11T00:10:25;8.15;;;5.03;;
71558;SDS011;59382;43.852;25.952;2023-03-11T00:12:53;10.75;;;5.85;;
71558;SDS011;59382;43.852;25.952;2023-03-11T00:15:19;10.77;;;5.72;;
71558;SDS011;59382;43.852;25.952;2023-03-11T00:17:46;10.57;;;5.55;;
71558;SDS011;59382;43.852;25.952;2023-03-11T00:20:17;7.18;;;4.80;;
71558;SDS011;59382;43.852;25.952;2023-03-11T00:22:48;5.82;;;3.72;;
71558;SDS011;59382;43.852;25.952;2023-03-11T00:25:15;4.28;;;3.53;;
71558;SDS011;59382;43.852;25.952;2023-03-11T00:27:42;7.07;;;3.42;;
71558;SDS011;59382;43.852;25.952;2023-03-11T00:30:08;10.07;;;3.17;;
71558;SDS011;59382;43.852;25.952;2023-03-11T00:32:35;4.53;;;3.47;;
71558;SDS011;59382;43.852;25.952;2023-03-11T00:35:01;6.28;;;2.83;;
71558;SDS011;59382;43.852;25.952;2023-03-11T00:37:26;4.82;;;2.80;;
71558;SDS011;59382;43.852;25.952;2023-03-11T00:40:00;6.30;;;2.83;;
71558;SDS011;59382;43.852;25.952;2023-03-11T00:42:26;6.57;;;3.13;;
71558;SDS011;59382;43.852;25.952;2023-03-11T00:44:51;7.05;;;3.92;;
71558;SDS011;59382;43.852;25.952;2023-03-11T00:47:17;7.72;;;4.10;;
71558;SDS011;59382;43.852;25.952;2023-03-11T00:49:42;6.53;;;3.92;;
71558;SDS011;59382;43.852;25.952;2023-03-11T00:52:08;3.97;;;2.97;;
71558;SDS011;59382;43.852;25.952;2023-03-11T00:54:33;5.88;;;3.85;;
71558;SDS011;59382;43.852;25.952;2023-03-11T00:56:59;4.43;;;3.15;;
71558;SDS011;59382;43.852;25.952;2023-03-11T00:59:24;4.85;;;3.47;;
71558;SDS011;59382;43.852;25.952;2023-03-11T01:01:50;7.28;;;4.07;;
71558;SDS011;59382;43.852;25.952;2023-03-11T01:04:16;3.67;;;2.92;;
71558;SDS011;59382;43.852;25.952;2023-03-11T01:06:41;4.85;;;2.60;;
71558;SDS011;59382;43.852;25.952;2023-03-11T01:09:07;4.25;;;2.90;;
71558;SDS011;59382;43.852;25.952;2023-03-11T01:11:33;6.43;;;2.80;;
71558;SDS011;59382;43.852;25.952;2023-03-11T01:13:58;5.18;;;3.00;;
71558;SDS011;59382;43.852;25.952;2023-03-11T01:16:24;3.20;;;2.40;;
71558;SDS011;59382;43.852;25.952;2023-03-11T01:18:49;3.72;;;2.78;;
71558;SDS011;59382;43.852;25.952;2023-03-11T01:21:15;5.43;;;2.70;;
71558;SDS011;59382;43.852;25.952;2023-03-11T01:23:41;4.53;;;2.53;;
71558;SDS011;59382;43.852;25.952;2023-03-11T01:26:07;3.72;;;2.55;;
71558;SDS011;59382;43.852;25.952;2023-03-11T01:28:32;3.80;;;2.42;;
71558;SDS011;59382;43.852;25.952;2023-03-11T01:30:58;3.50;;;2.88;;
71558;SDS011;59382;43.852;25.952;2023-03-11T01:33:24;5.57;;;3.22;;
71558;SDS011;59382;43.852;25.952;2023-03-11T01:35:50;5.60;;;3.40;;
71558;SDS011;59382;43.852;25.952;2023-03-11T01:38:15;4.75;;;3.55;;
71558;SDS011;59382;43.852;25.952;2023-03-11T01:40:42;8.00;;;3.95;;
71558;SDS011;59382;43.852;25.952;2023-03-11T01:48:30;4.60;;;3.50;;
71558;SDS011;59382;43.852;25.952;2023-03-11T01:50:55;5.80;;;3.90;;
71558;SDS011;59382;43.852;25.952;2023-03-11T01:53:21;5.38;;;4.28;;
71558;SDS011;59382;43.852;25.952;2023-03-11T01:55:48;3.38;;;2.95;;
71558;SDS011;59382;43.852;25.952;2023-03-11T01:58:15;4.32;;;3.67;;
71558;SDS011;59382;43.852;25.952;2023-03-11T02:00:45;5.13;;;3.80;;
71558;SDS011;59382;43.852;25.952;2023-03-11T02:03:21;4.93;;;4.20;;
71558;SDS011;59382;43.852;25.952;2023-03-11T02:05:51;8.45;;;4.32;;
71558;SDS011;59382;43.852;25.952;2023-03-11T02:08:18;4.78;;;3.70;;
71558;SDS011;59382;43.852;25.952;2023-03-11T02:10:44;6.03;;;4.20;;
71558;SDS011;59382;43.852;25.952;2023-03-11T02:13:10;5.28;;;3.88;;
71558;SDS011;59382;43.852;25.952;2023-03-11T02:15:36;5.80;;;4.38;;
71558;SDS011;59382;43.852;25.952;2023-03-11T02:18:03;5.85;;;4.60;;
71558;SDS011;59382;43.852;25.952;2023-03-11T02:26:03;7.70;;;4.22;;
71558;SDS011;59382;43.852;25.952;2023-03-11T02:28:35;6.50;;;3.97;;
71558;SDS011;59382;43.852;25.952;2023-03-11T02:31:03;8.63;;;4.18;;
71558;SDS011;59382;43.852;25.952;2023-03-11T02:33:30;5.95;;;3.45;;
71558;SDS011;59382;43.852;25.952;2023-03-11T02:35:57;5.80;;;3.33;;
71558;SDS011;59382;43.852;25.952;2023-03-11T02:38:22;5.60;;;3.67;;
71558;SDS011;59382;43.852;25.952;2023-03-11T02:40:52;6.10;;;3.40;;
71558;SDS011;59382;43.852;25.952;2023-03-11T02:43:36;7.65;;;4.22;;
71558;SDS011;59382;43.852;25.952;2023-03-11T02:46:05;5.32;;;3.55;;
71558;SDS011;59382;43.852;25.952;2023-03-11T02:48:34;5.30;;;3.85;;
71558;SDS011;59382;43.852;25.952;2023-03-11T02:51:02;4.03;;;3.63;;
71558;SDS011;59382;43.852;25.952;2023-03-11T02:53:28;5.97;;;3.53;;
71558;SDS011;59382;43.852;25.952;2023-03-11T02:55:57;5.45;;;4.20;;
71558;SDS011;59382;43.852;25.952;2023-03-11T02:58:23;5.03;;;4.00;;
71558;SDS011;59382;43.852;25.952;2023-03-11T03:00:48;4.93;;;4.25;;
71558;SDS011;59382;43.852;25.952;2023-03-11T03:03:14;6.43;;;4.05;;
71558;SDS011;59382;43.852;25.952;2023-03-11T03:05:40;6.78;;;4.53;;
71558;SDS011;59382;43.852;25.952;2023-03-11T03:08:05;6.20;;;3.58;;
71558;SDS011;59382;43.852;25.952;2023-03-11T03:10:31;8.82;;;4.35;;
71558;SDS011;59382;43.852;25.952;2023-03-11T03:12:57;8.18;;;4.30;;
71558;SDS011;59382;43.852;25.952;2023-03-11T03:15:22;10.10;;;5.10;;
71558;SDS011;59382;43.852;25.952;2023-03-11T03:17:48;7.18;;;4.20;;
71558;SDS011;59382;43.852;25.952;2023-03-11T03:20:15;4.88;;;3.80;;
71558;SDS011;59382;43.852;25.952;2023-03-11T03:22:42;4.57;;;4.00;;
71558;SDS011;59382;43.852;25.952;2023-03-11T03:25:08;11.00;;;4.13;;
71558;SDS011;59382;43.852;25.952;2023-03-11T03:27:34;8.52;;;4.53;;
71558;SDS011;59382;43.852;25.952;2023-03-11T03:30:00;6.13;;;4.35;;
71558;SDS011;59382;43.852;25.952;2023-03-11T03:32:26;5.72;;;4.43;;
71558;SDS011;59382;43.852;25.952;2023-03-11T03:34:51;8.88;;;4.78;;
71558;SDS011;59382;43.852;25.952;2023-03-11T03:37:22;6.25;;;4.13;;
71558;SDS011;59382;43.852;25.952;2023-03-11T03:39:47;5.47;;;4.13;;
71558;SDS011;59382;43.852;25.952;2023-03-11T03:42:13;6.47;;;4.35;;
71558;SDS011;59382;43.852;25.952;2023-03-11T03:44:38;5.43;;;4.03;;
71558;SDS011;59382;43.852;25.952;2023-03-11T03:47:04;5.57;;;3.75;;
71558;SDS011;59382;43.852;25.952;2023-03-11T03:49:29;6.53;;;4.18;;
71558;SDS011;59382;43.852;25.952;2023-03-11T03:51:55;7.68;;;3.78;;
71558;SDS011;59382;43.852;25.952;2023-03-11T03:54:20;12.75;;;4.47;;
71558;SDS011;59382;43.852;25.952;2023-03-11T03:56:46;6.57;;;4.20;;
71558;SDS011;59382;43.852;25.952;2023-03-11T03:59:11;4.82;;;3.83;;
71558;SDS011;59382;43.852;25.952;2023-03-11T04:01:37;11.40;;;4.72;;
71558;SDS011;59382;43.852;25.952;2023-03-11T04:04:02;5.82;;;4.25;;
71558;SDS011;59382;43.852;25.952;2023-03-11T04:06:28;6.28;;;3.97;;
71558;SDS011;59382;43.852;25.952;2023-03-11T04:08:53;7.28;;;4.03;;
71558;SDS011;59382;43.852;25.952;2023-03-11T04:11:19;4.70;;;3.40;;
71558;SDS011;59382;43.852;25.952;2023-03-11T04:13:44;7.75;;;3.70;;
71558;SDS011;59382;43.852;25.952;2023-03-11T04:16:14;3.72;;;3.30;;
71558;SDS011;59382;43.852;25.952;2023-03-11T04:18:42;7.38;;;3.88;;
71558;SDS011;59382;43.852;25.952;2023-03-11T04:21:08;8.00;;;4.25;;
71558;SDS011;59382;43.852;25.952;2023-03-11T04:23:33;4.05;;;3.50;;
71558;SDS011;59382;43.852;25.952;2023-03-11T04:25:59;5.70;;;3.25;;
71558;SDS011;59382;43.852;25.952;2023-03-11T04:28:25;4.78;;;3.00;;
71558;SDS011;59382;43.852;25.952;2023-03-11T04:30:50;7.90;;;3.95;;
71558;SDS011;59382;43.852;25.952;2023-03-11T04:33:16;6.18;;;4.32;;
71558;SDS011;59382;43.852;25.952;2023-03-11T04:35:41;8.60;;;4.13;;
71558;SDS011;59382;43.852;25.952;2023-03-11T04:38:07;5.93;;;3.45;;
71558;SDS011;59382;43.852;25.952;2023-03-11T04:40:32;5.65;;;3.55;;
71558;SDS011;59382;43.852;25.952;2023-03-11T04:42:58;5.10;;;3.50;;
71558;SDS011;59382;43.852;25.952;2023-03-11T04:45:24;7.30;;;4.20;;
71558;SDS011;59382;43.852;25.952;2023-03-11T04:47:49;8.05;;;4.88;;
71558;SDS011;59382;43.852;25.952;2023-03-11T04:50:16;9.80;;;4.53;;
71558;SDS011;59382;43.852;25.952;2023-03-11T04:52:42;5.85;;;3.97;;
71558;SDS011;59382;43.852;25.952;2023-03-11T04:55:08;5.93;;;4.53;;
71558;SDS011;59382;43.852;25.952;2023-03-11T04:57:34;5.97;;;4.32;;
71558;SDS011;59382;43.852;25.952;2023-03-11T05:00:01;6.50;;;4.28;;
71558;SDS011;59382;43.852;25.952;2023-03-11T05:02:30;6.63;;;4.05;;
71558;SDS011;59382;43.852;25.952;2023-03-11T05:04:55;5.05;;;4.22;;
71558;SDS011;59382;43.852;25.952;2023-03-11T05:07:21;7.95;;;4.32;;
71558;SDS011;59382;43.852;25.952;2023-03-11T05:09:46;5.50;;;3.90;;
71558;SDS011;59382;43.852;25.952;2023-03-11T05:12:12;4.10;;;3.08;;
71558;SDS011;59382;43.852;25.952;2023-03-11T05:14:37;4.78;;;3.95;;
71558;SDS011;59382;43.852;25.952;2023-03-11T05:17:03;6.53;;;4.30;;
71558;SDS011;59382;43.852;25.952;2023-03-11T05:19:29;11.30;;;3.65;;
71558;SDS011;59382;43.852;25.952;2023-03-11T05:21:59;8.13;;;4.10;;
71558;SDS011;59382;43.852;25.952;2023-03-11T05:24:26;5.70;;;4.22;;
71558;SDS011;59382;43.852;25.952;2023-03-11T05:26:52;9.02;;;3.58;;
71558;SDS011;59382;43.852;25.952;2023-03-11T05:29:18;8.63;;;4.50;;
71558;SDS011;59382;43.852;25.952;2023-03-11T05:31:44;10.50;;;5.00;;
71558;SDS011;59382;43.852;25.952;2023-03-11T05:34:11;8.85;;;4.38;;
71558;SDS011;59382;43.852;25.952;2023-03-11T05:36:36;6.38;;;4.53;;
71558;SDS011;59382;43.852;25.952;2023-03-11T05:39:02;8.05;;;4.38;;
71558;SDS011;59382;43.852;25.952;2023-03-11T05:41:27;8.32;;;4.43;;
71558;SDS011;59382;43.852;25.952;2023-03-11T05:43:53;10.20;;;6.70;;
71558;SDS011;59382;43.852;25.952;2023-03-11T05:46:18;4.55;;;3.40;;
71558;SDS011;59382;43.852;25.952;2023-03-11T05:48:44;3.70;;;3.35;;
71558;SDS011;59382;43.852;25.952;2023-03-11T05:51:11;6.75;;;3.38;;
71558;SDS011;59382;43.852;25.952;2023-03-11T05:53:37;6.95;;;3.72;;
71558;SDS011;59382;43.852;25.952;2023-03-11T05:56:05;7.03;;;4.05;;
71558;SDS011;59382;43.852;25.952;2023-03-11T05:58:31;8.50;;;4.68;;
71558;SDS011;59382;43.852;25.952;2023-03-11T06:00:57;4.57;;;3.78;;
71558;SDS011;59382;43.852;25.952;2023-03-11T06:03:24;7.03;;;4.15;;
71558;SDS011;59382;43.852;25.952;2023-03-11T06:05:50;4.40;;;3.08;;
71558;SDS011;59382;43.852;25.952;2023-03-11T06:08:16;5.03;;;3.42;;
71558;SDS011;59382;43.852;25.952;2023-03-11T06:10:42;4.35;;;3.13;;
71558;SDS011;59382;43.852;25.952;2023-03-11T06:13:08;6.50;;;3.63;;
71558;SDS011;59382;43.852;25.952;2023-03-11T06:15:34;3.72;;;3.38;;
71558;SDS011;59382;43.852;25.952;2023-03-11T06:18:01;6.55;;;3.65;;
71558;SDS011;59382;43.852;25.952;2023-03-11T06:20:27;6.53;;;3.72;;
71558;SDS011;59382;43.852;25.952;2023-03-11T06:22:53;4.80;;;3.42;;
71558;SDS011;59382;43.852;25.952;2023-03-11T06:25:18;6.20;;;3.20;;
71558;SDS011;59382;43.852;25.952;2023-03-11T06:27:47;4.28;;;3.33;;
71558;SDS011;59382;43.852;25.952;2023-03-11T06:30:18;4.88;;;2.83;;
71558;SDS011;59382;43.852;25.952;2023-03-11T06:32:47;6.80;;;3.42;;
71558;SDS011;59382;43.852;25.952;2023-03-11T06:35:13;6.10;;;2.92;;
71558;SDS011;59382;43.852;25.952;2023-03-11T06:37:39;5.72;;;2.92;;
71558;SDS011;59382;43.852;25.952;2023-03-11T06:40:06;4.63;;;3.00;;
71558;SDS011;59382;43.852;25.952;2023-03-11T06:42:35;3.83;;;2.50;;
71558;SDS011;59382;43.852;25.952;2023-03-11T06:45:00;3.25;;;2.10;;
71558;SDS011;59382;43.852;25.952;2023-03-11T06:47:26;6.55;;;2.60;;
71558;SDS011;59382;43.852;25.952;2023-03-11T06:49:52;5.88;;;2.35;;
71558;SDS011;59382;43.852;25.952;2023-03-11T06:52:18;3.45;;;2.20;;
71558;SDS011;59382;43.852;25.952;2023-03-11T06:54:44;3.83;;;2.53;;
71558;SDS011;59382;43.852;25.952;2023-03-11T06:57:10;4.38;;;1.83;;
71558;SDS011;59382;43.852;25.952;2023-03-11T06:59:36;2.83;;;1.90;;
71558;SDS011;59382;43.852;25.952;2023-03-11T07:02:04;2.03;;;1.80;;
71558;SDS011;59382;43.852;25.952;2023-03-11T07:04:31;5.65;;;1.88;;
71558;SDS011;59382;43.852;25.952;2023-03-11T07:06:56;2.03;;;1.77;;
71558;SDS011;59382;43.852;25.952;2023-03-11T07:09:22;5.40;;;2.40;;
71558;SDS011;59382;43.852;25.952;2023-03-11T07:11:49;2.40;;;1.65;;
71558;SDS011;59382;43.852;25.952;2023-03-11T07:14:15;7.55;;;2.15;;
71558;SDS011;59382;43.852;25.952;2023-03-11T07:16:41;2.92;;;1.80;;
71558;SDS011;59382;43.852;25.952;2023-03-11T07:19:08;4.70;;;2.22;;
71558;SDS011;59382;43.852;25.952;2023-03-11T07:21:34;5.45;;;3.28;;
71558;SDS011;59382;43.852;25.952;2023-03-11T07:24:00;7.70;;;3.75;;
71558;SDS011;59382;43.852;25.952;2023-03-11T07:26:27;5.05;;;2.58;;
71558;SDS011;59382;43.852;25.952;2023-03-11T07:28:54;3.10;;;2.15;;
71558;SDS011;59382;43.852;25.952;2023-03-11T07:31:25;3.85;;;2.55;;
71558;SDS011;59382;43.852;25.952;2023-03-11T07:33:52;2.22;;;2.03;;
71558;SDS011;59382;43.852;25.952;2023-03-11T07:36:19;7.55;;;6.07;;
71558;SDS011;59382;43.852;25.952;2023-03-11T07:38:47;2.95;;;2.22;;
71558;SDS011;59382;43.852;25.952;2023-03-11T07:41:14;2.35;;;2.00;;
71558;SDS011;59382;43.852;25.952;2023-03-11T07:43:40;3.83;;;2.38;;
71558;SDS011;59382;43.852;25.952;2023-03-11T07:46:08;2.97;;;2.33;;
71558;SDS011;59382;43.852;25.952;2023-03-11T07:48:37;2.67;;;2.40;;
71558;SDS011;59382;43.852;25.952;2023-03-11T07:51:04;3.80;;;2.20;;
71558;SDS011;59382;43.852;25.952;2023-03-11T07:53:51;1.98;;;1.70;;
71558;SDS011;59382;43.852;25.952;2023-03-11T07:56:18;1.50;;;1.40;;
71558;SDS011;59382;43.852;25.952;2023-03-11T07:58:44;2.28;;;1.45;;
71558;SDS011;59382;43.852;25.952;2023-03-11T08:01:14;2.35;;;1.75;;
71558;SDS011;59382;43.852;25.952;2023-03-11T08:03:42;1.90;;;1.65;;
71558;SDS011;59382;43.852;25.952;2023-03-11T08:06:13;1.38;;;1.27;;
71558;SDS011;59382;43.852;25.952;2023-03-11T08:08:40;2.58;;;1.92;;
71558;SDS011;59382;43.852;25.952;2023-03-11T08:11:07;1.85;;;1.58;;
71558;SDS011;59382;43.852;25.952;2023-03-11T08:13:33;6.60;;;1.80;;
71558;SDS011;59382;43.852;25.952;2023-03-11T08:16:01;1.48;;;1.20;;
71558;SDS011;59382;43.852;25.952;2023-03-11T08:18:28;1.60;;;1.33;;
71558;SDS011;59382;43.852;25.952;2023-03-11T08:20:55;1.30;;;1.20;;
71558;SDS011;59382;43.852;25.952;2023-03-11T08:23:21;7.72;;;2.25;;
71558;SDS011;59382;43.852;25.952;2023-03-11T08:25:46;1.50;;;1.40;;
71558;SDS011;59382;43.852;25.952;2023-03-11T08:28:12;4.95;;;1.20;;
71558;SDS011;59382;43.852;25.952;2023-03-11T08:30:37;3.90;;;1.35;;
71558;SDS011;59382;43.852;25.952;2023-03-11T08:33:02;2.40;;;1.40;;
71558;SDS011;59382;43.852;25.952;2023-03-11T08:35:29;2.45;;;1.02;;
71558;SDS011;59382;43.852;25.952;2023-03-11T08:37:55;1.30;;;1.17;;
71558;SDS011;59382;43.852;25.952;2023-03-11T08:40:20;1.95;;;1.00;;
71558;SDS011;59382;43.852;25.952;2023-03-11T08:42:49;1.48;;;1.20;;
71558;SDS011;59382;43.852;25.952;2023-03-11T08:45:14;1.98;;;1.30;;
71558;SDS011;59382;43.852;25.952;2023-03-11T08:47:40;3.53;;;1.40;;
71558;SDS011;59382;43.852;25.952;2023-03-11T08:50:08;23.58;;;18.15;;
71558;SDS011;59382;43.852;25.952;2023-03-11T08:52:38;2.63;;;2.08;;
71558;SDS011;59382;43.852;25.952;2023-03-11T08:55:03;1.10;;;1.00;;
71558;SDS011;59382;43.852;25.952;2023-03-11T08:57:30;1.35;;;1.25;;
71558;SDS011;59382;43.852;25.952;2023-03-11T08:59:56;4.88;;;1.42;;
71558;SDS011;59382;43.852;25.952;2023-03-11T09:02:25;3.78;;;1.30;;
71558;SDS011;59382;43.852;25.952;2023-03-11T09:04:51;1.50;;;1.40;;
71558;SDS011;59382;43.852;25.952;2023-03-11T09:07:17;5.75;;;1.75;;
71558;SDS011;59382;43.852;25.952;2023-03-11T09:09:43;1.55;;;1.30;;
71558;SDS011;59382;43.852;25.952;2023-03-11T09:12:08;1.75;;;1.33;;
71558;SDS011;59382;43.852;25.952;2023-03-11T09:14:38;1.17;;;1.13;;
71558;SDS011;59382;43.852;25.952;2023-03-11T09:17:04;1.42;;;1.17;;
71558;SDS011;59382;43.852;25.952;2023-03-11T09:19:30;1.10;;;1.00;;
71558;SDS011;59382;43.852;25.952;2023-03-11T09:21:58;1.13;;;1.02;;
71558;SDS011;59382;43.852;25.952;2023-03-11T09:24:24;1.20;;;1.15;;
71558;SDS011;59382;43.852;25.952;2023-03-11T09:26:50;1.25;;;1.15;;
71558;SDS011;59382;43.852;25.952;2023-03-11T09:29:15;2.35;;;1.00;;
71558;SDS011;59382;43.852;25.952;2023-03-11T09:31:41;1.30;;;1.20;;
71558;SDS011;59382;43.852;25.952;2023-03-11T09:34:06;1.20;;;1.10;;
71558;SDS011;59382;43.852;25.952;2023-03-11T09:36:32;1.65;;;1.13;;
71558;SDS011;59382;43.852;25.952;2023-03-11T09:38:57;1.40;;;1.30;;
71558;SDS011;59382;43.852;25.952;2023-03-11T09:58:38;1.55;;;1.45;;
71558;SDS011;59382;43.852;25.952;2023-03-11T10:01:24;4.72;;;1.90;;
71558;SDS011;59382;43.852;25.952;2023-03-11T10:03:53;2.50;;;2.10;;
71558;SDS011;59382;43.852;25.952;2023-03-11T10:06:22;2.33;;;1.85;;
71558;SDS011;59382;43.852;25.952;2023-03-11T10:08:56;1.70;;;1.60;;
71558;SDS011;59382;43.852;25.952;2023-03-11T10:11:29;1.70;;;1.60;;
71558;SDS011;59382;43.852;25.952;2023-03-11T10:15:00;4.55;;;1.75;;
71558;SDS011;59382;43.852;25.952;2023-03-11T10:25:59;4.95;;;2.42;;
71558;SDS011;59382;43.852;25.952;2023-03-11T10:28:32;2.17;;;2.00;;
71558;SDS011;59382;43.852;25.952;2023-03-11T10:31:03;5.22;;;1.55;;
71558;SDS011;59382;43.852;25.952;2023-03-11T10:33:43;2.50;;;2.30;;
71558;SDS011;59382;43.852;25.952;2023-03-11T10:36:14;4.22;;;2.20;;
71558;SDS011;59382;43.852;25.952;2023-03-11T10:38:48;8.30;;;2.13;;
71558;SDS011;59382;43.852;25.952;2023-03-11T10:46:49;11.63;;;3.08;;
71558;SDS011;59382;43.852;25.952;2023-03-11T10:49:15;10.02;;;1.75;;
71558;SDS011;59382;43.852;25.952;2023-03-11T10:51:45;1.75;;;1.65;;
71558;SDS011;59382;43.852;25.952;2023-03-11T10:54:20;11.20;;;2.05;;
71558;SDS011;59382;43.852;25.952;2023-03-11T10:56:47;7.13;;;2.00;;
71558;SDS011;59382;43.852;25.952;2023-03-11T10:59:25;4.15;;;1.88;;
71558;SDS011;59382;43.852;25.952;2023-03-11T11:05:23;7.05;;;1.40;;
71558;SDS011;59382;43.852;25.952;2023-03-11T11:08:03;1.45;;;1.27;;
71558;SDS011;59382;43.852;25.952;2023-03-11T11:10:32;12.60;;;1.25;;
71558;SDS011;59382;43.852;25.952;2023-03-11T11:13:00;9.85;;;1.85;;
71558;SDS011;59382;43.852;25.952;2023-03-11T11:15:33;10.00;;;1.17;;
71558;SDS011;59382;43.852;25.952;2023-03-11T11:18:01;3.92;;;1.00;;
71558;SDS011;59382;43.852;25.952;2023-03-11T11:20:29;3.00;;;0.80;;
71558;SDS011;59382;43.852;25.952;2023-03-11T11:22:58;3.58;;;1.05;;
71558;SDS011;59382;43.852;25.952;2023-03-11T11:28:01;3.60;;;1.13;;
71558;SDS011;59382;43.852;25.952;2023-03-11T11:30:51;4.50;;;1.33;;
71558;SDS011;59382;43.852;25.952;2023-03-11T11:33:24;5.25;;;1.58;;
71558;SDS011;59382;43.852;25.952;2023-03-11T11:35:53;3.33;;;1.30;;
71558;SDS011;59382;43.852;25.952;2023-03-11T11:38:21;1.30;;;1.20;;
71558;SDS011;59382;43.852;25.952;2023-03-11T11:40:49;3.30;;;1.20;;
71558;SDS011;59382;43.852;25.952;2023-03-11T11:43:17;12.40;;;1.65;;
71558;SDS011;59382;43.852;25.952;2023-03-11T11:45:45;26.48;;;2.17;;
71558;SDS011;59382;43.852;25.952;2023-03-11T11:48:21;3.42;;;1.40;;
71558;SDS011;59382;43.852;25.952;2023-03-11T11:51:12;3.75;;;1.15;;
71558;SDS011;59382;43.852;25.952;2023-03-11T11:53:50;6.15;;;1.10;;
71558;SDS011;59382;43.852;25.952;2023-03-11T11:56:24;5.07;;;1.27;;
71558;SDS011;59382;43.852;25.952;2023-03-11T11:58:51;3.67;;;1.35;;
71558;SDS011;59382;43.852;25.952;2023-03-11T12:01:28;8.98;;;1.80;;
71558;SDS011;59382;43.852;25.952;2023-03-11T12:09:51;6.65;;;1.42;;
71558;SDS011;59382;43.852;25.952;2023-03-11T12:12:35;1.50;;;1.40;;
71558;SDS011;59382;43.852;25.952;2023-03-11T12:15:15;3.63;;;1.45;;
71558;SDS011;59382;43.852;25.952;2023-03-11T12:17:46;3.35;;;1.20;;
71558;SDS011;59382;43.852;25.952;2023-03-11T12:20:19;8.77;;;1.50;;
71558;SDS011;59382;43.852;25.952;2023-03-11T12:28:53;1.65;;;1.55;;
71558;SDS011;59382;43.852;25.952;2023-03-11T12:31:23;7.32;;;1.85;;
71558;SDS011;59382;43.852;25.952;2023-03-11T12:33:57;4.80;;;2.13;;
71558;SDS011;59382;43.852;25.952;2023-03-11T12:38:56;2.80;;;1.73;;
71558;SDS011;59382;43.852;25.952;2023-03-11T12:41:34;11.93;;;1.92;;
71558;SDS011;59382;43.852;25.952;2023-03-11T12:44:22;1.80;;;1.70;;
71558;SDS011;59382;43.852;25.952;2023-03-11T12:49:29;9.18;;;2.40;;
71558;SDS011;59382;43.852;25.952;2023-03-11T12:54:35;3.03;;;1.98;;
71558;SDS011;59382;43.852;25.952;2023-03-11T13:05:20;6.60;;;1.80;;
71558;SDS011;59382;43.852;25.952;2023-03-11T13:10:17;4.90;;;1.25;;
71558;SDS011;59382;43.852;25.952;2023-03-11T13:12:45;2.17;;;1.40;;
71558;SDS011;59382;43.852;25.952;2023-03-11T13:23:08;1.88;;;1.10;;
71558;SDS011;59382;43.852;25.952;2023-03-11T13:34:35;1.73;;;0.70;;
71558;SDS011;59382;43.852;25.952;2023-03-11T13:39:55;7.13;;;1.55;;
71558;SDS011;59382;43.852;25.952;2023-03-11T13:45:06;0.63;;;0.63;;
71558;SDS011;59382;43.852;25.952;2023-03-11T13:47:40;0.70;;;0.70;;
71558;SDS011;59382;43.852;25.952;2023-03-11T13:50:16;3.38;;;0.80;;
71558;SDS011;59382;43.852;25.952;2023-03-11T13:52:50;1.15;;;0.80;;
71558;SDS011;59382;43.852;25.952;2023-03-11T13:55:22;4.28;;;0.93;;
71558;SDS011;59382;43.852;25.952;2023-03-11T13:57:55;2.20;;;1.00;;
71558;SDS011;59382;43.852;25.952;2023-03-11T14:00:22;2.47;;;1.48;;
71558;SDS011;59382;43.852;25.952;2023-03-11T14:02:53;1.73;;;0.70;;
71558;SDS011;59382;43.852;25.952;2023-03-11T14:05:28;7.57;;;1.35;;
71558;SDS011;59382;43.852;25.952;2023-03-11T14:08:12;1.80;;;0.55;;
71558;SDS011;59382;43.852;25.952;2023-03-11T14:10:57;7.70;;;1.08;;
71558;SDS011;59382;43.852;25.952;2023-03-11T14:13:46;7.75;;;0.82;;
71558;SDS011;59382;43.852;25.952;2023-03-11T14:16:18;8.57;;;1.55;;
71558;SDS011;59382;43.852;25.952;2023-03-11T14:18:47;1.30;;;0.77;;
71558;SDS011;59382;43.852;25.952;2023-03-11T14:21:33;1.58;;;0.70;;
71558;SDS011;59382;43.852;25.952;2023-03-11T14:23:59;1.40;;;0.65;;
71558;SDS011;59382;43.852;25.952;2023-03-11T14:26:27;12.68;;;1.50;;
71558;SDS011;59382;43.852;25.952;2023-03-11T14:28:59;2.40;;;0.88;;
71558;SDS011;59382;43.852;25.952;2023-03-11T14:31:38;1.20;;;0.80;;
71558;SDS011;59382;43.852;25.952;2023-03-11T14:36:56;3.70;;;1.00;;
71558;SDS011;59382;43.852;25.952;2023-03-11T14:39:25;0.47;;;0.47;;
71558;SDS011;59382;43.852;25.952;2023-03-11T14:41:52;17.02;;;1.17;;
71558;SDS011;59382;43.852;25.952;2023-03-11T14:44:39;0.73;;;0.60;;
71558;SDS011;59382;43.852;25.952;2023-03-11T14:47:08;1.80;;;0.77;;
71558;SDS011;59382;43.852;25.952;2023-03-11T14:49:40;6.35;;;1.35;;
71558;SDS011;59382;43.852;25.952;2023-03-11T14:52:07;1.42;;;1.17;;
71558;SDS011;59382;43.852;25.952;2023-03-11T14:54:42;6.32;;;2.95;;
71558;SDS011;59382;43.852;25.952;2023-03-11T14:57:13;5.38;;;1.17;;
71558;SDS011;59382;43.852;25.952;2023-03-11T14:59:43;1.95;;;1.00;;
71558;SDS011;59382;43.852;25.952;2023-03-11T15:04:56;4.85;;;1.15;;
71558;SDS011;59382;43.852;25.952;2023-03-11T15:07:26;1.65;;;1.13;;
71558;SDS011;59382;43.852;25.952;2023-03-11T15:09:52;1.13;;;1.02;;
71558;SDS011;59382;43.852;25.952;2023-03-11T15:12:34;7.85;;;1.30;;
71558;SDS011;59382;43.852;25.952;2023-03-11T15:15:18;1.65;;;1.20;;
71558;SDS011;59382;43.852;25.952;2023-03-11T15:17:53;1.90;;;1.45;;
71558;SDS011;59382;43.852;25.952;2023-03-11T15:22:56;1.95;;;0.98;;
71558;SDS011;59382;43.852;25.952;2023-03-11T15:25:28;5.93;;;0.90;;
71558;SDS011;59382;43.852;25.952;2023-03-11T15:27:58;5.15;;;0.93;;
71558;SDS011;59382;43.852;25.952;2023-03-11T15:30:38;6.28;;;1.27;;
71558;SDS011;59382;43.852;25.952;2023-03-11T15:33:03;1.58;;;0.88;;
71558;SDS011;59382;43.852;25.952;2023-03-11T15:35:46;3.55;;;1.02;;
71558;SDS011;59382;43.852;25.952;2023-03-11T15:38:25;3.03;;;0.95;;
71558;SDS011;59382;43.852;25.952;2023-03-11T15:41:01;11.20;;;2.08;;
71558;SDS011;59382;43.852;25.952;2023-03-11T15:43:31;1.95;;;1.30;;
71558;SDS011;59382;43.852;25.952;2023-03-11T15:46:07;7.68;;;1.25;;
71558;SDS011;59382;43.852;25.952;2023-03-11T15:48:35;4.00;;;1.10;;
71558;SDS011;59382;43.852;25.952;2023-03-11T15:51:00;4.05;;;1.35;;
71558;SDS011;59382;43.852;25.952;2023-03-11T15:53:26;5.78;;;1.27;;
71558;SDS011;59382;43.852;25.952;2023-03-11T15:55:54;5.15;;;1.30;;
71558;SDS011;59382;43.852;25.952;2023-03-11T15:58:22;1.88;;;1.63;;
71558;SDS011;59382;43.852;25.952;2023-03-11T16:00:52;1.55;;;1.20;;
71558;SDS011;59382;43.852;25.952;2023-03-11T16:03:23;2.67;;;1.52;;
71558;SDS011;59382;43.852;25.952;2023-03-11T16:05:49;2.63;;;2.00;;
71558;SDS011;59382;43.852;25.952;2023-03-11T16:08:14;2.05;;;1.40;;
71558;SDS011;59382;43.852;25.952;2023-03-11T16:10:40;6.10;;;1.52;;
71558;SDS011;59382;43.852;25.952;2023-03-11T16:13:09;4.35;;;1.48;;
71558;SDS011;59382;43.852;25.952;2023-03-11T16:15:36;2.90;;;1.70;;
71558;SDS011;59382;43.852;25.952;2023-03-11T16:18:03;1.48;;;1.30;;
71558;SDS011;59382;43.852;25.952;2023-03-11T16:20:41;2.15;;;1.63;;
71558;SDS011;59382;43.852;25.952;2023-03-11T16:23:16;3.17;;;1.45;;
71558;SDS011;59382;43.852;25.952;2023-03-11T16:25:47;1.95;;;1.40;;
71558;SDS011;59382;43.852;25.952;2023-03-11T16:28:14;1.60;;;1.35;;
71558;SDS011;59382;43.852;25.952;2023-03-11T16:30:40;2.25;;;1.23;;